Time;durP1;ratioP1;P1;durP2;ratioP2;P2;SDS_P1;SDS_P2;PMS_P1;PMS_P2;Temp;Humidity;BMP_temperature;BMP_pressure;BME280_temperature;BME280_humidity;BME280_pressure;Samples;Min_cycle;Max_cycle;Signal;HPM_P1;HPM_P2
2022/11/25 00:00:05;;;;;;;1.50;1.00;;;;;;;;;;10215426;28;20047;-82
2022/11/25 00:05:13;;;;;;;3.17;1.20;;;;;;;;;;10218178;28;20082;-82
2022/11/25 00:10:17;;;;;;;2.65;1.35;;;;;;;;;;10200497;28;20051;-82
2022/11/25 00:15:22;;;;;;;5.05;1.60;;;;;;;;;;10217702;28;20416;-81
2022/11/25 00:20:25;;;;;;;4.05;1.70;;;;;;;;;;10199452;28;20043;-82
2022/11/25 00:25:29;;;;;;;3.45;1.45;;;;;;;;;;10206401;28;20054;-81
2022/11/25 00:30:33;;;;;;;3.45;1.50;;;;;;;;;;10222737;28;20142;-82
2022/11/25 00:35:37;;;;;;;4.40;1.45;;;;;;;;;;10212558;28;20064;-82
2022/11/25 00:40:40;;;;;;;3.55;0.93;;;;;;;;;;10215152;28;20512;-83
2022/11/25 00:45:46;;;;;;;6.05;1.65;;;;;;;;;;10205629;28;20059;-82
2022/11/25 00:50:49;;;;;;;5.13;1.35;;;;;;;;;;10206057;28;20760;-81
2022/11/25 01:01:15;;;;;;;3.00;1.05;;;;;;;;;;10211757;28;20508;-82
2022/11/25 01:06:19;;;;;;;2.67;1.10;;;;;;;;;;10204350;28;20054;-82
2022/11/25 01:11:23;;;;;;;3.67;0.90;;;;;;;;;;10209007;28;20047;-82
2022/11/25 01:16:28;;;;;;;5.90;1.35;;;;;;;;;;10208557;28;20047;-81
2022/11/25 01:21:33;;;;;;;2.58;0.98;;;;;;;;;;10205062;28;20111;-82
2022/11/25 01:26:37;;;;;;;5.65;1.50;;;;;;;;;;10203233;28;20051;-82
2022/11/25 01:31:42;;;;;;;2.78;1.20;;;;;;;;;;10203627;28;20047;-83
2022/11/25 01:36:46;;;;;;;2.50;1.07;;;;;;;;;;10221052;28;20044;-81
2022/11/25 01:41:50;;;;;;;4.63;1.48;;;;;;;;;;10222997;28;20117;-82
2022/11/25 01:47:01;;;;;;;3.30;1.20;;;;;;;;;;10197386;28;20775;-81
2022/11/25 01:52:11;;;;;;;3.35;0.98;;;;;;;;;;10203910;28;20052;-82
2022/11/25 01:57:23;;;;;;;3.28;0.93;;;;;;;;;;10205353;28;20043;-82
2022/11/25 02:02:28;;;;;;;4.07;1.10;;;;;;;;;;10223571;28;20520;-81
2022/11/25 02:07:35;;;;;;;2.85;0.88;;;;;;;;;;10219529;28;20435;-82
2022/11/25 02:12:40;;;;;;;;;;;;;;;;;;10219841;28;20047;-82
2022/11/25 02:17:45;;;;;;;2.80;1.30;;;;;;;;;;10253067;28;20353;-82
2022/11/25 02:22:57;;;;;;;3.03;1.40;;;;;;;;;;10216004;28;20114;-82
2022/11/25 02:28:06;;;;;;;4.00;1.30;;;;;;;;;;10208765;28;20104;-82
2022/11/25 02:33:12;;;;;;;6.70;2.00;;;;;;;;;;10216553;28;20139;-82
2022/11/25 02:38:19;;;;;;;4.35;1.15;;;;;;;;;;10225850;28;20058;-82
2022/11/25 02:43:26;;;;;;;;;;;;;;;;;;10224025;28;20057;-83
2022/11/25 02:48:32;;;;;;;4.97;1.30;;;;;;;;;;10232305;28;20005;-82
2022/11/25 02:53:56;;;;;;;;;;;;;;;;;;10215682;28;20051;-83
2022/11/25 02:59:03;;;;;;;8.77;2.63;;;;;;;;;;10231551;28;20346;-83
2022/11/25 03:04:06;;;;;;;4.53;1.30;;;;;;;;;;10256182;28;20667;-83
2022/11/25 03:09:11;;;;;;;4.68;1.20;;;;;;;;;;10233986;28;20583;-83
2022/11/25 03:14:16;;;;;;;6.40;1.70;;;;;;;;;;10228465;28;20573;-82
2022/11/25 03:19:20;;;;;;;4.35;2.05;;;;;;;;;;10231804;28;20059;-82
2022/11/25 03:24:23;;;;;;;6.65;1.67;;;;;;;;;;10230655;28;20053;-83
2022/11/25 03:29:28;;;;;;;6.32;1.40;;;;;;;;;;10227467;28;20576;-83
2022/11/25 03:34:31;;;;;;;3.28;0.93;;;;;;;;;;10252705;28;20047;-83
2022/11/25 03:39:35;;;;;;;4.07;1.45;;;;;;;;;;10214021;28;20508;-82
2022/11/25 03:44:41;;;;;;;4.97;1.10;;;;;;;;;;10213002;28;20039;-83
2022/11/25 03:49:44;;;;;;;3.00;1.02;;;;;;;;;;10234285;28;20043;-83
2022/11/25 03:54:48;;;;;;;1.40;0.73;;;;;;;;;;10245061;28;20065;-82
2022/11/25 03:59:56;;;;;;;1.52;0.93;;;;;;;;;;10227633;28;20048;-82
2022/11/25 04:05:00;;;;;;;3.88;0.93;;;;;;;;;;10217414;28;20126;-82
2022/11/25 04:10:04;;;;;;;4.88;1.15;;;;;;;;;;10218714;28;20726;-82
2022/11/25 04:15:10;;;;;;;3.37;1.13;;;;;;;;;;10230330;28;20097;-82
2022/11/25 04:20:16;;;;;;;3.17;0.70;;;;;;;;;;10231954;28;20055;-81
2022/11/25 04:25:25;;;;;;;6.30;1.25;;;;;;;;;;10213741;28;20054;-82
2022/11/25 04:30:32;;;;;;;6.07;1.10;;;;;;;;;;10223369;28;20051;-83
2022/11/25 04:35:36;;;;;;;3.38;1.00;;;;;;;;;;10228000;28;20134;-82
2022/11/25 04:40:40;;;;;;;6.50;1.52;;;;;;;;;;10233753;28;20057;-82
2022/11/25 04:45:52;;;;;;;7.10;1.92;;;;;;;;;;10225495;28;20123;-82
2022/11/25 04:51:15;;;;;;;7.47;1.40;;;;;;;;;;10212536;28;20062;-82
2022/11/25 04:56:21;;;;;;;5.53;1.40;;;;;;;;;;10209965;28;20106;-83
2022/11/25 05:01:31;;;;;;;8.90;2.00;;;;;;;;;;10226472;28;20132;-83
2022/11/25 05:06:53;;;;;;;2.58;1.00;;;;;;;;;;10209222;28;20047;-82
2022/11/25 05:11:58;;;;;;;2.45;0.95;;;;;;;;;;10234326;28;20050;-83
2022/11/25 05:17:04;;;;;;;2.75;0.98;;;;;;;;;;10224579;28;20054;-84
2022/11/25 05:22:11;;;;;;;2.80;0.60;;;;;;;;;;10216525;28;20043;-85
2022/11/25 05:27:15;;;;;;;;;;;;;;;;;;10231469;28;20047;-87
2022/11/25 05:32:20;;;;;;;3.40;1.02;;;;;;;;;;10256899;28;20310;-86
2022/11/25 05:37:25;;;;;;;3.72;0.93;;;;;;;;;;10223640;28;20074;-86
2022/11/25 05:42:35;;;;;;;2.35;0.82;;;;;;;;;;10231592;28;20046;-85
2022/11/25 05:47:42;;;;;;;2.72;0.88;;;;;;;;;;10228047;28;20047;-83
2022/11/25 05:52:49;;;;;;;0.88;0.77;;;;;;;;;;10233590;28;20407;-83
2022/11/25 05:57:52;;;;;;;1.33;0.82;;;;;;;;;;10210149;28;20585;-83
2022/11/25 06:02:58;;;;;;;3.85;1.00;;;;;;;;;;10240215;28;20039;-82
2022/11/25 06:08:02;;;;;;;3.05;0.98;;;;;;;;;;10209000;28;20049;-82
2022/11/25 06:13:06;;;;;;;3.78;1.02;;;;;;;;;;10228171;28;20094;-81
2022/11/25 06:18:12;;;;;;;1.98;0.70;;;;;;;;;;10222278;28;20044;-82
2022/11/25 06:23:15;;;;;;;3.13;0.68;;;;;;;;;;10213321;28;20047;-82
2022/11/25 06:28:20;;;;;;;3.13;0.88;;;;;;;;;;10228878;28;20045;-82
2022/11/25 06:33:26;;;;;;;2.05;1.10;;;;;;;;;;10229030;28;20043;-85
2022/11/25 06:38:32;;;;;;;4.10;1.50;;;;;;;;;;10212707;28;20047;-83
2022/11/25 06:43:35;;;;;;;3.30;1.10;;;;;;;;;;10229200;28;20038;-84
2022/11/25 06:48:41;;;;;;;3.55;1.13;;;;;;;;;;10230405;28;20043;-84
2022/11/25 06:53:45;;;;;;;3.67;1.15;;;;;;;;;;10230885;28;20122;-84
2022/11/25 06:58:50;;;;;;;3.45;0.90;;;;;;;;;;10212561;28;20051;-84
2022/11/25 07:03:58;;;;;;;3.40;1.00;;;;;;;;;;10208128;28;20047;-85
2022/11/25 07:09:01;;;;;;;7.97;1.50;;;;;;;;;;10222446;28;20095;-85
2022/11/25 07:14:07;;;;;;;2.58;1.00;;;;;;;;;;10243209;28;20051;-85
2022/11/25 07:19:13;;;;;;;3.30;1.00;;;;;;;;;;10247443;28;21606;-86
2022/11/25 07:24:18;;;;;;;3.22;1.08;;;;;;;;;;10222677;28;20050;-86
2022/11/25 07:29:21;;;;;;;4.03;1.30;;;;;;;;;;10220220;28;20067;-86
2022/11/25 07:34:46;;;;;;;2.95;1.10;;;;;;;;;;10222796;28;20069;-86
2022/11/25 07:39:49;;;;;;;2.28;1.10;;;;;;;;;;10223887;28;20134;-86
2022/11/25 07:44:53;;;;;;;3.03;1.20;;;;;;;;;;10230445;28;20050;-85
2022/11/25 07:50:17;;;;;;;2.13;0.88;;;;;;;;;;10231980;28;20047;-85
2022/11/25 07:55:21;;;;;;;2.65;1.20;;;;;;;;;;10221527;28;20051;-85
2022/11/25 08:00:24;;;;;;;3.60;1.23;;;;;;;;;;10210096;28;20055;-84
2022/11/25 08:05:29;;;;;;;2.03;0.88;;;;;;;;;;10232965;28;20051;-85
2022/11/25 08:10:32;;;;;;;3.97;1.13;;;;;;;;;;10237712;28;20046;-86
2022/11/25 08:15:36;;;;;;;3.00;1.23;;;;;;;;;;10223139;28;20311;-85
2022/11/25 08:20:41;;;;;;;1.85;0.88;;;;;;;;;;10213077;28;20040;-86
2022/11/25 08:25:45;;;;;;;2.65;1.25;;;;;;;;;;10216812;28;20051;-86
2022/11/25 08:30:51;;;;;;;4.00;0.80;;;;;;;;;;10235595;28;20058;-85
2022/11/25 08:35:56;;;;;;;2.72;1.17;;;;;;;;;;10211245;28;20047;-86
2022/11/25 08:41:00;;;;;;;2.85;1.10;;;;;;;;;;10219075;28;20142;-85
2022/11/25 08:46:09;;;;;;;1.20;0.70;;;;;;;;;;10211288;28;20051;-85
2022/11/25 08:51:17;;;;;;;2.30;1.20;;;;;;;;;;10229956;28;20452;-86
2022/11/25 08:56:22;;;;;;;1.10;0.80;;;;;;;;;;10221782;28;20522;-85
2022/11/25 09:01:28;;;;;;;2.25;1.10;;;;;;;;;;10218844;28;20412;-85
2022/11/25 09:06:33;;;;;;;1.15;0.77;;;;;;;;;;10227400;28;20049;-82
2022/11/25 09:11:36;;;;;;;3.00;1.00;;;;;;;;;;10242646;28;20051;-85
2022/11/25 09:16:40;;;;;;;1.55;0.57;;;;;;;;;;10242970;28;20118;-84
2022/11/25 09:21:45;;;;;;;3.72;0.90;;;;;;;;;;10232762;28;20048;-85
2022/11/25 09:26:48;;;;;;;2.08;0.80;;;;;;;;;;10209262;28;20035;-84
2022/11/25 09:31:52;;;;;;;5.88;1.70;;;;;;;;;;10217314;28;20053;-85
2022/11/25 09:36:58;;;;;;;4.47;1.50;;;;;;;;;;10210001;28;20527;-84
2022/11/25 09:47:46;;;;;;;2.80;1.20;;;;;;;;;;10245910;28;20050;-85
2022/11/25 09:53:02;;;;;;;3.60;1.60;;;;;;;;;;10220101;28;20408;-85
2022/11/25 09:58:19;;;;;;;4.57;1.60;;;;;;;;;;10217386;28;20051;-85
2022/11/25 10:03:32;;;;;;;6.88;2.00;;;;;;;;;;10219505;28;20046;-85
2022/11/25 10:08:39;;;;;;;4.18;1.50;;;;;;;;;;10229854;28;20078;-84
2022/11/25 10:13:48;;;;;;;3.30;1.30;;;;;;;;;;10218036;28;20047;-84
2022/11/25 10:18:56;;;;;;;5.38;1.98;;;;;;;;;;10224158;28;20035;-87
2022/11/25 10:24:00;;;;;;;2.70;1.35;;;;;;;;;;10205646;28;20051;-84
2022/11/25 10:29:22;;;;;;;1.83;1.10;;;;;;;;;;10210562;28;20043;-84
2022/11/25 10:34:34;;;;;;;2.63;1.00;;;;;;;;;;10235016;28;20051;-84
2022/11/25 10:39:39;;;;;;;2.35;1.00;;;;;;;;;;10208019;28;20486;-86
2022/11/25 10:44:42;;;;;;;2.50;1.27;;;;;;;;;;10215778;28;20129;-84
2022/11/25 10:50:03;;;;;;;3.00;1.33;;;;;;;;;;10239379;28;20542;-84
2022/11/25 10:55:14;;;;;;;4.80;1.77;;;;;;;;;;10222748;28;20081;-84
2022/11/25 11:00:30;;;;;;;5.72;1.92;;;;;;;;;;10209919;28;20146;-84
2022/11/25 11:05:34;;;;;;;6.45;1.60;;;;;;;;;;10245630;28;20050;-84
2022/11/25 11:10:40;;;;;;;1.98;1.10;;;;;;;;;;10226926;28;20500;-84
2022/11/25 11:15:46;;;;;;;3.67;1.33;;;;;;;;;;10237582;28;20051;-84
2022/11/25 11:20:52;;;;;;;7.80;1.83;;;;;;;;;;10226881;28;20407;-84
2022/11/25 11:26:00;;;;;;;4.37;1.27;;;;;;;;;;10231512;28;20054;-83
2022/11/25 11:31:07;;;;;;;4.07;1.33;;;;;;;;;;10221430;28;20737;-84
2022/11/25 11:36:29;;;;;;;5.47;1.45;;;;;;;;;;10214970;28;20141;-84
2022/11/25 11:41:40;;;;;;;5.63;1.27;;;;;;;;;;10194546;28;20512;-85
2022/11/25 11:46:58;;;;;;;5.10;1.38;;;;;;;;;;10206095;28;20035;-84
2022/11/25 11:52:09;;;;;;;4.80;1.35;;;;;;;;;;10216266;28;20172;-87
2022/11/25 11:57:22;;;;;;;3.53;1.08;;;;;;;;;;10235679;28;20047;-85
2022/11/25 12:02:41;;;;;;;3.60;1.58;;;;;;;;;;10214125;28;20058;-85
2022/11/25 12:07:53;;;;;;;3.90;1.15;;;;;;;;;;10230727;28;20162;-86
2022/11/25 12:13:05;;;;;;;2.60;0.85;;;;;;;;;;10228165;28;20050;-86
2022/11/25 12:18:20;;;;;;;2.00;1.05;;;;;;;;;;10213061;28;20066;-85
2022/11/25 12:23:31;;;;;;;2.95;1.00;;;;;;;;;;10217234;28;20067;-85
2022/11/25 12:28:40;;;;;;;3.83;1.30;;;;;;;;;;10230879;28;20121;-84
2022/11/25 12:33:52;;;;;;;3.22;1.13;;;;;;;;;;10218019;28;20047;-84
2022/11/25 12:39:00;;;;;;;7.22;1.85;;;;;;;;;;10227073;28;20529;-84
2022/11/25 12:44:11;;;;;;;3.97;1.75;;;;;;;;;;10213484;28;20407;-83
2022/11/25 12:49:19;;;;;;;3.25;1.40;;;;;;;;;;10228894;28;20530;-84
2022/11/25 12:54:34;;;;;;;3.53;1.55;;;;;;;;;;10225323;28;20047;-84
2022/11/25 13:00:00;;;;;;;5.78;1.35;;;;;;;;;;10224483;28;20422;-83
2022/11/25 13:05:36;;;;;;;7.13;1.60;;;;;;;;;;10219853;28;20061;-84
2022/11/25 13:11:06;;;;;;;3.83;1.15;;;;;;;;;;10239786;28;20547;-85
2022/11/25 13:16:12;;;;;;;4.57;1.80;;;;;;;;;;10229883;28;20047;-84
2022/11/25 13:21:16;;;;;;;4.17;1.40;;;;;;;;;;10241838;28;20051;-85
2022/11/25 13:26:48;;;;;;;4.30;1.65;;;;;;;;;;10247722;28;20061;-86
2022/11/25 13:32:00;;;;;;;3.55;1.27;;;;;;;;;;10221480;28;20047;-83
2022/11/25 13:37:39;;;;;;;8.18;1.98;;;;;;;;;;10231667;28;20054;-83
2022/11/25 13:42:44;;;;;;;4.93;1.95;;;;;;;;;;10236907;28;20061;-83
2022/11/25 13:47:49;;;;;;;6.60;1.40;;;;;;;;;;10205090;28;20206;-84
2022/11/25 13:52:59;;;;;;;4.63;1.33;;;;;;;;;;10217989;28;20057;-84
2022/11/25 13:58:17;;;;;;;4.70;1.80;;;;;;;;;;10248044;28;20047;-83
2022/11/25 14:03:48;;;;;;;6.03;1.85;;;;;;;;;;10223310;28;20042;-83
2022/11/25 14:08:59;;;;;;;5.45;1.70;;;;;;;;;;10244603;28;20039;-83
2022/11/25 14:14:17;;;;;;;7.38;1.65;;;;;;;;;;10224465;28;20053;-83
2022/11/25 14:19:55;;;;;;;4.63;1.42;;;;;;;;;;10222091;28;20066;-83
2022/11/25 14:25:14;;;;;;;5.40;1.10;;;;;;;;;;10237810;28;20047;-83
2022/11/25 14:30:18;;;;;;;8.25;2.38;;;;;;;;;;10226548;28;20071;-83
2022/11/25 14:35:28;;;;;;;4.40;1.35;;;;;;;;;;10241701;28;20592;-83
2022/11/25 14:40:38;;;;;;;5.65;1.70;;;;;;;;;;10221119;28;20039;-83
2022/11/25 14:45:41;;;;;;;6.50;1.75;;;;;;;;;;10222204;28;20051;-83
2022/11/25 14:50:58;;;;;;;5.60;1.80;;;;;;;;;;10212065;28;20134;-83
2022/11/25 14:56:02;;;;;;;4.35;1.15;;;;;;;;;;10250093;28;20053;-83
2022/11/25 15:01:07;;;;;;;4.93;1.58;;;;;;;;;;10207605;28;20055;-84
2022/11/25 15:06:14;;;;;;;6.00;1.60;;;;;;;;;;10221794;28;20131;-83
2022/11/25 15:11:23;;;;;;;3.80;1.52;;;;;;;;;;10212616;28;20051;-83
2022/11/25 15:16:32;;;;;;;2.88;0.90;;;;;;;;;;10225437;28;20061;-83
2022/11/25 15:21:39;;;;;;;3.08;0.90;;;;;;;;;;10211378;28;20426;-83
2022/11/25 15:26:52;;;;;;;2.50;1.23;;;;;;;;;;10229521;28;20512;-83
2022/11/25 15:31:57;;;;;;;5.38;1.20;;;;;;;;;;10213484;28;20054;-85
2022/11/25 15:37:02;;;;;;;1.58;0.80;;;;;;;;;;10231536;28;20058;-85
2022/11/25 15:42:14;;;;;;;4.10;1.05;;;;;;;;;;10255861;28;20113;-86
2022/11/25 15:47:22;;;;;;;6.10;1.13;;;;;;;;;;10229189;28;20577;-83
2022/11/25 15:52:29;;;;;;;2.67;1.00;;;;;;;;;;10236764;28;20507;-84
2022/11/25 15:57:35;;;;;;;2.30;0.65;;;;;;;;;;10237471;28;20054;-83
2022/11/25 16:02:49;;;;;;;3.40;0.63;;;;;;;;;;10232580;28;20388;-84
2022/11/25 16:08:15;;;;;;;2.53;0.63;;;;;;;;;;10223382;28;20075;-83
2022/11/25 16:13:29;;;;;;;5.50;0.85;;;;;;;;;;10242055;28;20050;-84
2022/11/25 16:18:36;;;;;;;3.97;0.80;;;;;;;;;;10242038;28;20082;-86
2022/11/25 16:23:46;;;;;;;4.70;1.55;;;;;;;;;;10244192;28;20055;-86
2022/11/25 16:28:55;;;;;;;4.32;1.30;;;;;;;;;;10227735;28;20353;-85
2022/11/25 16:34:11;;;;;;;4.80;1.23;;;;;;;;;;10227174;28;20058;-86
2022/11/25 16:39:16;;;;;;;4.00;1.33;;;;;;;;;;10230810;28;20050;-84
2022/11/25 16:44:22;;;;;;;2.17;0.88;;;;;;;;;;10223387;28;20078;-85
2022/11/25 16:49:26;;;;;;;2.77;0.93;;;;;;;;;;10236355;28;20052;-85
2022/11/25 16:54:32;;;;;;;4.88;1.10;;;;;;;;;;10230583;28;20287;-85
2022/11/25 16:59:38;;;;;;;4.43;1.13;;;;;;;;;;10252632;28;20043;-84
2022/11/25 17:04:41;;;;;;;1.77;0.85;;;;;;;;;;10218275;28;20427;-85
2022/11/25 17:09:46;;;;;;;1.95;1.05;;;;;;;;;;10226608;28;20047;-85
2022/11/25 17:14:50;;;;;;;6.15;1.83;;;;;;;;;;10259666;28;20236;-85
2022/11/25 17:19:53;;;;;;;5.68;1.80;;;;;;;;;;10242311;28;20582;-85
2022/11/25 17:24:58;;;;;;;2.72;1.38;;;;;;;;;;10232375;28;20047;-82
2022/11/25 17:30:05;;;;;;;5.35;1.05;;;;;;;;;;10230247;28;20057;-83
2022/11/25 17:35:17;;;;;;;4.13;1.65;;;;;;;;;;10206127;28;20054;-83
2022/11/25 17:40:22;;;;;;;11.25;3.30;;;;;;;;;;10237793;28;20039;-83
2022/11/25 17:45:26;;;;;;;11.98;2.53;;;;;;;;;;10229027;28;20055;-84
2022/11/25 17:50:29;;;;;;;7.80;2.42;;;;;;;;;;10218516;28;20054;-83
2022/11/25 17:55:35;;;;;;;12.30;3.50;;;;;;;;;;10225405;28;20050;-84
2022/11/25 18:00:41;;;;;;;10.20;3.33;;;;;;;;;;10245505;28;20049;-83
2022/11/25 18:05:44;;;;;;;6.65;2.30;;;;;;;;;;10237506;28;20492;-83
2022/11/25 18:10:49;;;;;;;6.03;2.45;;;;;;;;;;10246861;28;20053;-83
2022/11/25 18:15:53;;;;;;;8.70;2.20;;;;;;;;;;10205226;28;20109;-83
2022/11/25 18:20:56;;;;;;;6.20;1.90;;;;;;;;;;10219973;28;20061;-83
2022/11/25 18:26:02;;;;;;;8.23;2.55;;;;;;;;;;10224395;28;20142;-85
2022/11/25 18:31:06;;;;;;;14.32;3.83;;;;;;;;;;10212066;28;20050;-85
2022/11/25 18:36:13;;;;;;;9.10;3.30;;;;;;;;;;10222918;28;20057;-85
2022/11/25 18:41:21;;;;;;;7.18;2.17;;;;;;;;;;10224026;28;20046;-86
2022/11/25 18:46:25;;;;;;;9.43;2.60;;;;;;;;;;10233727;28;20069;-85
2022/11/25 18:51:28;;;;;;;7.07;2.20;;;;;;;;;;10221552;28;20129;-85
2022/11/25 18:56:33;;;;;;;4.93;1.50;;;;;;;;;;10237043;28;20086;-86
2022/11/25 19:01:37;;;;;;;5.65;1.77;;;;;;;;;;10230311;28;20053;-85
2022/11/25 19:06:41;;;;;;;7.70;2.35;;;;;;;;;;10213664;28;20130;-84
2022/11/25 19:11:49;;;;;;;9.65;1.60;;;;;;;;;;10231844;28;20043;-84
2022/11/25 19:16:53;;;;;;;5.53;1.33;;;;;;;;;;10211373;28;20142;-85
2022/11/25 19:22:00;;;;;;;5.60;1.10;;;;;;;;;;10224452;28;20051;-83
2022/11/25 19:27:04;;;;;;;5.47;1.20;;;;;;;;;;10225964;28;20054;-84
2022/11/25 19:32:17;;;;;;;3.80;1.73;;;;;;;;;;10256862;28;20131;-85
2022/11/25 19:37:23;;;;;;;5.68;1.88;;;;;;;;;;10212012;28;20054;-84
2022/11/25 19:42:30;;;;;;;4.70;1.58;;;;;;;;;;10220456;28;20129;-85
2022/11/25 19:47:33;;;;;;;2.42;1.60;;;;;;;;;;10218998;28;20054;-85
2022/11/25 19:52:39;;;;;;;2.72;1.48;;;;;;;;;;10253423;28;20525;-85
2022/11/25 19:57:44;;;;;;;5.63;1.48;;;;;;;;;;10227196;28;20047;-84
2022/11/25 20:02:51;;;;;;;3.97;2.00;;;;;;;;;;10225547;28;20055;-84
2022/11/25 20:07:55;;;;;;;3.40;1.70;;;;;;;;;;10219539;28;20083;-83
2022/11/25 20:13:00;;;;;;;2.90;1.30;;;;;;;;;;10230397;28;20043;-84
2022/11/25 20:18:04;;;;;;;4.45;1.38;;;;;;;;;;10229062;28;20816;-83
2022/11/25 20:23:13;;;;;;;2.80;1.40;;;;;;;;;;10226430;28;20042;-83
2022/11/25 20:28:20;;;;;;;5.53;1.80;;;;;;;;;;10230021;28;20231;-83
2022/11/25 20:33:24;;;;;;;4.65;1.83;;;;;;;;;;10215615;28;20078;-85
2022/11/25 20:38:30;;;;;;;7.13;1.80;;;;;;;;;;10222119;28;20043;-84
2022/11/25 20:43:37;;;;;;;6.97;2.08;;;;;;;;;;10247747;28;20393;-84
2022/11/25 20:48:41;;;;;;;2.60;1.40;;;;;;;;;;10228219;28;20053;-85
2022/11/25 20:53:47;;;;;;;3.75;1.13;;;;;;;;;;10232261;28;20077;-85
2022/11/25 20:58:52;;;;;;;3.50;1.13;;;;;;;;;;10179597;29;20064;-85
2022/11/25 21:03:56;;;;;;;5.38;1.45;;;;;;;;;;10196047;29;20067;-84
2022/11/25 21:09:01;;;;;;;2.38;1.48;;;;;;;;;;10192291;29;20048;-84
2022/11/25 21:14:13;;;;;;;3.93;1.80;;;;;;;;;;10185281;29;20058;-84
2022/11/25 21:19:16;;;;;;;6.97;2.88;;;;;;;;;;10181259;29;20151;-84
2022/11/25 21:24:28;;;;;;;7.63;4.25;;;;;;;;;;10182822;29;20075;-84
2022/11/25 21:29:33;;;;;;;8.13;4.28;;;;;;;;;;10215120;29;20059;-84
2022/11/25 21:34:36;;;;;;;21.48;8.10;;;;;;;;;;10182271;29;20051;-84
2022/11/25 21:39:40;;;;;;;12.80;6.00;;;;;;;;;;10198759;29;20369;-84
2022/11/25 21:44:45;;;;;;;9.05;4.72;;;;;;;;;;10195401;29;20075;-85
2022/11/25 21:49:50;;;;;;;9.47;4.40;;;;;;;;;;10186654;29;20086;-84
2022/11/25 21:54:53;;;;;;;5.65;3.60;;;;;;;;;;10180840;28;20730;-85
2022/11/25 21:59:58;;;;;;;5.78;2.83;;;;;;;;;;10226111;28;20471;-83
2022/11/25 22:05:01;;;;;;;7.43;3.63;;;;;;;;;;10243562;28;20043;-83
2022/11/25 22:10:06;;;;;;;7.55;3.90;;;;;;;;;;10226693;28;20126;-83
2022/11/25 22:15:16;;;;;;;9.38;4.65;;;;;;;;;;10229925;28;20062;-83
2022/11/25 22:20:33;;;;;;;7.95;4.65;;;;;;;;;;10245288;28;20115;-82
2022/11/25 22:25:36;;;;;;;9.40;4.18;;;;;;;;;;10226841;28;20483;-83
2022/11/25 22:30:43;;;;;;;8.40;4.25;;;;;;;;;;10249462;28;20047;-83
2022/11/25 22:35:46;;;;;;;8.77;3.90;;;;;;;;;;10228625;28;20054;-83
2022/11/25 22:40:52;;;;;;;8.10;3.95;;;;;;;;;;10226394;28;20071;-82
2022/11/25 22:45:57;;;;;;;7.13;3.47;;;;;;;;;;10236182;28;20530;-81
2022/11/25 22:51:01;;;;;;;5.18;2.97;;;;;;;;;;10226923;28;20075;-82
2022/11/25 22:56:05;;;;;;;6.15;2.70;;;;;;;;;;10228959;28;20419;-82
2022/11/25 23:01:13;;;;;;;7.00;2.90;;;;;;;;;;10254697;28;20046;-81
2022/11/25 23:06:17;;;;;;;4.93;2.72;;;;;;;;;;10225441;28;20047;-82
2022/11/25 23:11:21;;;;;;;6.95;2.97;;;;;;;;;;10244116;28;20057;-82
2022/11/25 23:16:25;;;;;;;7.03;3.13;;;;;;;;;;10235670;28;20066;-82
2022/11/25 23:21:29;;;;;;;6.25;3.03;;;;;;;;;;10227649;28;20509;-82
2022/11/25 23:26:32;;;;;;;5.53;2.97;;;;;;;;;;10232354;28;20046;-82
2022/11/25 23:31:39;;;;;;;8.00;2.65;;;;;;;;;;10214248;28;20054;-82
2022/11/25 23:36:45;;;;;;;4.90;2.30;;;;;;;;;;10235043;28;20042;-82
2022/11/25 23:41:49;;;;;;;5.90;2.65;;;;;;;;;;10219293;28;20046;-82
2022/11/25 23:46:57;;;;;;;8.48;3.08;;;;;;;;;;10203466;28;20058;-82
2022/11/25 23:52:02;;;;;;;3.53;1.98;;;;;;;;;;10222077;28;20055;-82
2022/11/25 23:57:14;;;;;;;3.50;1.88;;;;;;;;;;10242410;28;20047;-82
